This is the latest recevied weather packets stored in our database for station/object XE2B-20. If no packets are shown the sender has not sent any weather packets the latest 10 day(s).
| Time | Temp. | Humidity | Pressure | Rain* | Wind** | Luminosity | Snow |
|---|---|---|---|---|---|---|---|
| 1777702727 | 20° C | 19% | 803.9 hPa | - | - | - | - |
| 1777701228 | 20° C | 19% | 804 hPa | - | - | - | - |
| 1777699730 | 20.56° C | 18% | 804.1 hPa | - | - | - | - |
| 1777698231 | 20.56° C | 18% | 804 hPa | - | - | - | - |
| 1777696731 | 21.11° C | 18% | 804 hPa | - | - | - | - |
| 1777695233 | 21.11° C | 18% | 803.9 hPa | - | - | - | - |
| 1777693733 | 21.67° C | 18% | 803.8 hPa | - | - | - | - |
| 1777692234 | 21.11° C | 18% | 803.7 hPa | - | - | - | - |
| 1777690734 | 21.67° C | 18% | 803.5 hPa | - | - | - | - |
| 1777689236 | 22.22° C | 18% | 803.1 hPa | - | - | - | - |
| 1777687738 | 22.78° C | 17% | 802.7 hPa | - | - | - | - |
| 1777686236 | 23.89° C | 17% | 802.5 hPa | - | - | - | - |
| 1777684737 | 25° C | 17% | 802 hPa | - | - | - | - |
| 1777683239 | 26.67° C | 16% | 802 hPa | - | - | - | - |
| 1777681739 | 28.33° C | 15% | 801.7 hPa | - | - | - | - |
| 1777680240 | 29.44° C | 15% | 801.3 hPa | - | - | - | - |
| 1777678741 | 30.56° C | 15% | 801 hPa | - | - | - | - |
| 1777677244 | 31.67° C | 14% | 800.8 hPa | - | - | - | - |
| 1777675745 | 32.22° C | 13% | 800.7 hPa | - | - | - | - |
| 1777674247 | 32.78° C | 13% | 800.8 hPa | - | - | - | - |
| 1777672749 | 32.78° C | 14% | 800.7 hPa | - | - | - | - |
| 1777671250 | 32.78° C | 14% | 800.9 hPa | - | - | - | - |
| 1777669751 | 33.33° C | 14% | 801.1 hPa | - | - | - | - |
| 1777668252 | 33.89° C | 13% | 801.4 hPa | - | - | - | - |
| 1777665256 | 33.33° C | 14% | 802.1 hPa | - | - | - | - |
* Rain since midnight (hover to see other rain measurements)
** Current wind speed in m/s (hover to see current wind gust speed)